createdAt,value
2022-10-15T00:01:17.884Z,10.15
2022-10-15T00:04:19.862Z,10.12
2022-10-15T00:07:22.100Z,10.10
2022-10-15T00:10:24.190Z,10.07
2022-10-15T00:13:26.040Z,10.04
2022-10-15T00:16:29.090Z,10.02
2022-10-15T00:19:30.868Z,10.00
2022-10-15T00:22:32.706Z,10.00
2022-10-15T00:25:34.485Z,10.00
2022-10-15T00:28:36.888Z,10.00
2022-10-15T00:31:38.995Z,9.99
2022-10-15T00:34:40.897Z,9.97
2022-10-15T00:37:44.225Z,9.95
2022-10-15T00:40:45.903Z,9.94
2022-10-15T00:43:50.288Z,9.93
2022-10-15T00:46:55.287Z,9.93
2022-10-15T00:50:05.024Z,9.93
2022-10-15T00:53:08.857Z,9.94
2022-10-15T00:56:12.135Z,9.95
2022-10-15T00:59:14.580Z,9.97
2022-10-15T01:02:18.816Z,9.98
2022-10-15T01:05:21.236Z,9.99
2022-10-15T01:08:22.971Z,9.99
2022-10-15T01:11:44.882Z,9.98
2022-10-15T01:15:27.780Z,9.99
2022-10-15T01:18:36.722Z,10.00
2022-10-15T01:21:48.308Z,9.99
2022-10-15T01:24:59.631Z,9.98
2022-10-15T01:28:20.422Z,9.98
2022-10-15T01:31:28.329Z,9.98
2022-10-15T01:34:55.429Z,9.97
2022-10-15T01:38:15.917Z,9.94
2022-10-15T01:41:28.110Z,9.90
2022-10-15T01:44:40.767Z,9.86
2022-10-15T01:47:49.733Z,9.83
2022-10-15T01:50:54.108Z,9.79
2022-10-15T01:53:56.120Z,9.75
2022-10-15T01:56:58.989Z,9.74
2022-10-15T02:00:01.918Z,9.72
2022-10-15T02:03:04.436Z,9.69
2022-10-15T02:06:09.984Z,9.66
2022-10-15T02:09:44.114Z,9.66
2022-10-15T02:12:59.525Z,9.63
2022-10-15T02:16:19.704Z,9.62
2022-10-15T02:19:38.145Z,9.61
2022-10-15T02:22:46.551Z,9.58
2022-10-15T02:25:50.549Z,9.56
2022-10-15T02:28:54.987Z,9.53
2022-10-15T02:31:57.113Z,9.48
2022-10-15T02:34:59.716Z,9.45
2022-10-15T02:38:05.008Z,9.44
2022-10-15T02:41:08.625Z,9.46
2022-10-15T02:44:10.644Z,9.46
2022-10-15T02:47:12.763Z,9.43
2022-10-15T02:50:14.660Z,9.37
2022-10-15T02:53:16.444Z,9.40
2022-10-15T02:56:18.248Z,9.43
2022-10-15T02:59:20.349Z,9.47
2022-10-15T03:02:22.081Z,9.49
2022-10-15T03:05:23.886Z,9.50
2022-10-15T03:08:25.738Z,9.55
2022-10-15T03:11:27.516Z,9.62
2022-10-15T03:17:31.955Z,9.81
2022-10-15T03:20:33.655Z,9.86
2022-10-15T03:23:35.323Z,9.92
2022-10-15T03:26:36.941Z,9.97
2022-10-15T03:29:38.488Z,9.98
2022-10-15T03:32:40.529Z,10.01
2022-10-15T03:35:42.443Z,10.01
2022-10-15T03:38:44.262Z,9.99
2022-10-15T03:41:46.115Z,9.98
2022-10-15T03:44:48.034Z,9.94
2022-10-15T03:47:49.684Z,9.92
2022-10-15T03:50:51.328Z,9.92
2022-10-15T03:53:53.608Z,9.90
2022-10-15T03:56:55.288Z,9.89
2022-10-15T03:59:57.317Z,9.86
2022-10-15T04:02:59.164Z,9.91
2022-10-15T04:06:02.719Z,9.99
2022-10-15T04:09:05.282Z,10.01
2022-10-15T04:12:07.197Z,10.01
2022-10-15T04:15:09.250Z,10.02
2022-10-15T04:18:11.789Z,10.02
2022-10-15T04:21:13.442Z,10.03
2022-10-15T04:24:15.266Z,10.04
2022-10-15T04:27:17.047Z,10.04
2022-10-15T04:30:19.071Z,10.03
2022-10-15T04:33:20.755Z,10.02
2022-10-15T04:36:22.420Z,10.00
2022-10-15T04:39:24.225Z,9.96
2022-10-15T04:42:26.055Z,9.93
2022-10-15T04:45:27.794Z,9.90
2022-10-15T04:48:31.536Z,9.88
2022-10-15T04:51:33.293Z,9.83
2022-10-15T04:54:34.991Z,9.78
2022-10-15T04:57:36.785Z,9.74
2022-10-15T05:00:39.015Z,9.70
2022-10-15T05:03:45.084Z,9.65
2022-10-15T05:06:47.064Z,9.59
2022-10-15T05:09:48.721Z,9.56
2022-10-15T05:12:54.125Z,9.53
2022-10-15T05:16:12.243Z,9.51
2022-10-15T05:19:14.072Z,9.45
2022-10-15T05:22:15.778Z,9.37
2022-10-15T05:25:17.476Z,9.33
2022-10-15T05:28:19.399Z,9.30
2022-10-15T05:31:22.803Z,9.31
2022-10-15T05:34:27.079Z,9.32
2022-10-15T05:37:28.701Z,9.34
2022-10-15T05:40:30.773Z,9.38
2022-10-15T05:43:36.091Z,9.44
2022-10-15T05:46:41.052Z,9.54
2022-10-15T05:49:42.689Z,9.59
2022-10-15T05:52:44.294Z,9.69
2022-10-15T05:55:46.124Z,9.80
2022-10-15T05:58:48.083Z,9.86
2022-10-15T06:01:50.114Z,9.99
2022-10-15T06:04:53.535Z,10.44
2022-10-15T06:07:56.641Z,10.57
2022-10-15T06:11:06.682Z,10.61
2022-10-15T06:14:11.833Z,10.94
2022-10-15T06:17:13.464Z,11.48
2022-10-15T06:20:15.161Z,12.15
2022-10-15T06:23:16.804Z,12.76
2022-10-15T06:26:18.508Z,13.27
2022-10-15T06:29:20.230Z,13.43
2022-10-15T06:32:21.919Z,13.28
2022-10-15T06:35:25.458Z,13.08
2022-10-15T06:38:27.261Z,12.93
2022-10-15T06:41:28.935Z,12.86
2022-10-15T06:44:30.685Z,12.83
2022-10-15T06:47:32.420Z,12.78
2022-10-15T06:50:35.982Z,12.75
2022-10-15T06:53:40.711Z,12.84
2022-10-15T06:56:42.324Z,13.01
2022-10-15T06:59:43.966Z,13.19
2022-10-15T07:02:45.570Z,13.35
2022-10-15T07:05:47.340Z,13.48
2022-10-15T07:08:49.249Z,13.52
2022-10-15T07:11:50.942Z,13.64
2022-10-15T07:14:52.529Z,13.76
2022-10-15T07:18:01.457Z,13.92
2022-10-15T07:21:05.240Z,14.10
2022-10-15T07:24:07.142Z,14.25
2022-10-15T07:27:18.797Z,14.42
2022-10-15T07:30:22.599Z,14.56
2022-10-15T07:33:24.465Z,14.60
2022-10-15T07:36:27.452Z,14.65
2022-10-15T07:39:29.108Z,14.71
2022-10-15T07:42:30.794Z,14.70
2022-10-15T07:45:32.575Z,14.68
2022-10-15T07:48:35.536Z,14.73
2022-10-15T07:51:37.111Z,14.80
2022-10-15T07:54:39.341Z,14.84
2022-10-15T07:57:41.187Z,14.94
2022-10-15T08:00:42.933Z,15.03
2022-10-15T08:03:44.858Z,15.14
2022-10-15T08:06:47.204Z,15.24
2022-10-15T08:09:49.076Z,15.32
2022-10-15T08:12:50.705Z,15.36
2022-10-15T08:15:56.234Z,15.40
2022-10-15T08:19:01.174Z,15.48
2022-10-15T08:22:03.194Z,15.58
2022-10-15T08:25:05.187Z,15.69
2022-10-15T08:28:06.899Z,15.81
2022-10-15T08:31:08.695Z,16.02
2022-10-15T08:34:10.537Z,16.34
2022-10-15T08:37:12.317Z,16.88
2022-10-15T08:40:15.359Z,17.11
2022-10-15T08:43:23.991Z,17.78
2022-10-15T08:46:36.299Z,18.49
2022-10-15T08:49:45.363Z,19.26
2022-10-15T08:52:48.801Z,19.81
2022-10-15T08:55:52.024Z,20.28
2022-10-15T08:59:10.881Z,20.48
2022-10-15T09:02:51.672Z,20.54
2022-10-15T09:06:02.656Z,20.41
2022-10-15T09:09:25.665Z,20.39
2022-10-15T09:12:41.083Z,20.31
2022-10-15T09:15:52.956Z,20.41
2022-10-15T09:18:54.788Z,20.51
2022-10-15T09:21:56.840Z,20.83
2022-10-15T09:24:58.552Z,21.21
2022-10-15T09:28:08.220Z,21.36
2022-10-15T09:31:11.579Z,21.35
2022-10-15T09:34:25.616Z,21.39
2022-10-15T09:37:35.469Z,21.90
2022-10-15T09:40:45.912Z,22.22
2022-10-15T09:43:50.280Z,22.37
2022-10-15T09:46:52.361Z,22.45
2022-10-15T09:49:53.992Z,22.62
2022-10-15T09:53:19.240Z,22.41
2022-10-15T09:56:42.974Z,21.71
2022-10-15T09:59:54.747Z,21.42
2022-10-15T10:03:07.701Z,21.27
2022-10-15T10:06:12.096Z,21.07
2022-10-15T10:09:19.874Z,21.18
2022-10-15T10:12:29.668Z,20.83
2022-10-15T10:15:35.292Z,20.54
2022-10-15T10:18:39.911Z,20.39
2022-10-15T10:21:43.136Z,20.58
2022-10-15T10:24:46.778Z,21.52
2022-10-15T10:27:48.455Z,22.25
2022-10-15T10:30:56.350Z,22.61
2022-10-15T10:34:01.658Z,22.73
2022-10-15T10:37:04.722Z,22.96
2022-10-15T10:40:22.421Z,23.22
2022-10-15T10:43:27.067Z,23.24
2022-10-15T10:46:28.662Z,22.88
2022-10-15T10:49:35.213Z,22.18
2022-10-15T10:52:38.262Z,22.13
2022-10-15T10:55:40.822Z,22.47
2022-10-15T10:58:43.016Z,22.95
2022-10-15T11:01:45.190Z,23.02
2022-10-15T11:04:47.426Z,22.41
2022-10-15T11:08:15.220Z,22.67
2022-10-15T11:11:26.805Z,23.50
2022-10-15T11:14:55.482Z,22.91
2022-10-15T11:18:15.099Z,21.86
2022-10-15T11:21:38.959Z,21.18
2022-10-15T11:25:05.970Z,20.68
2022-10-15T11:28:16.533Z,20.15
2022-10-15T11:31:32.304Z,19.78
2022-10-15T11:34:57.593Z,19.53
2022-10-15T11:38:23.504Z,19.31
2022-10-15T11:41:47.193Z,19.05
2022-10-15T11:44:54.750Z,18.91
2022-10-15T11:48:02.586Z,18.86
2022-10-15T11:51:13.178Z,18.86
2022-10-15T11:54:26.773Z,18.90
2022-10-15T11:57:30.057Z,18.98
2022-10-15T12:00:38.576Z,19.23
2022-10-15T12:03:51.267Z,19.62
2022-10-15T12:06:55.462Z,19.77
2022-10-15T12:10:06.336Z,19.64
2022-10-15T12:13:07.967Z,19.51
2022-10-15T12:16:39.989Z,19.39
2022-10-15T12:20:06.961Z,19.31
2022-10-15T12:23:23.692Z,19.17
2022-10-15T12:26:28.577Z,19.14
2022-10-15T12:29:30.424Z,19.20
2022-10-15T12:32:42.198Z,19.25
2022-10-15T12:35:43.867Z,19.25
2022-10-15T12:39:11.692Z,19.24
2022-10-15T12:42:29.145Z,19.20
2022-10-15T12:45:40.517Z,19.21
2022-10-15T12:48:46.992Z,19.16
2022-10-15T12:51:52.632Z,19.07
2022-10-15T12:55:20.422Z,18.98
2022-10-15T12:58:34.216Z,18.88
2022-10-15T13:01:41.920Z,18.81
2022-10-15T13:04:43.705Z,18.74
2022-10-15T13:07:47.484Z,18.71
2022-10-15T13:10:58.306Z,18.68
2022-10-15T13:14:02.084Z,18.66
2022-10-15T13:17:22.632Z,18.66
2022-10-15T13:20:31.075Z,18.68
2022-10-15T13:23:34.461Z,18.68
2022-10-15T13:26:36.134Z,18.70
2022-10-15T13:29:37.785Z,18.76
2022-10-15T13:32:53.677Z,18.88
2022-10-15T13:35:55.475Z,19.01
2022-10-15T13:38:59.691Z,19.17
2022-10-15T13:42:13.379Z,19.33
2022-10-15T13:45:18.915Z,19.50
2022-10-15T13:48:23.181Z,19.66
2022-10-15T13:51:31.802Z,19.75
2022-10-15T13:54:33.427Z,19.73
2022-10-15T13:57:35.061Z,19.57
2022-10-15T14:00:37.326Z,19.43
2022-10-15T14:03:46.624Z,19.36
2022-10-15T14:07:16.020Z,19.27
2022-10-15T14:10:17.944Z,19.17
2022-10-15T14:13:19.739Z,19.06
2022-10-15T14:16:36.987Z,18.97
2022-10-15T14:19:39.193Z,18.92
2022-10-15T14:22:40.893Z,18.88
2022-10-15T14:25:42.860Z,18.78
2022-10-15T14:28:51.059Z,18.63
2022-10-15T14:31:52.998Z,18.46
2022-10-15T14:34:56.680Z,18.28
2022-10-15T14:38:14.430Z,18.15
2022-10-15T14:41:31.793Z,18.04
2022-10-15T14:44:47.790Z,17.89
2022-10-15T14:48:00.630Z,17.76
2022-10-15T14:51:07.601Z,17.62
2022-10-15T14:54:21.821Z,17.47
2022-10-15T14:57:26.235Z,17.31
2022-10-15T15:00:33.831Z,17.18
2022-10-15T15:03:44.310Z,17.07
2022-10-15T15:06:46.003Z,16.95
2022-10-15T15:09:48.995Z,16.85
2022-10-15T15:12:54.797Z,16.77
2022-10-15T15:15:56.633Z,16.66
2022-10-15T15:18:58.949Z,16.53
2022-10-15T15:22:00.500Z,16.41
2022-10-15T15:25:07.448Z,16.32
2022-10-15T15:28:20.295Z,16.25
2022-10-15T15:31:22.049Z,16.20
2022-10-15T15:34:24.060Z,16.10
2022-10-15T15:37:26.488Z,15.97
2022-10-15T15:40:28.172Z,15.81
2022-10-15T15:43:30.235Z,15.71
2022-10-15T15:46:31.896Z,15.67
2022-10-15T15:49:33.573Z,15.61
2022-10-15T15:52:36.714Z,15.49
2022-10-15T15:55:40.519Z,15.38
2022-10-15T15:58:42.223Z,15.29
2022-10-15T16:01:43.921Z,15.24
2022-10-15T16:04:46.060Z,15.18
2022-10-15T16:07:48.340Z,15.15
2022-10-15T16:10:50.271Z,14.99
2022-10-15T16:13:52.164Z,14.77
2022-10-15T16:16:54.020Z,14.53
2022-10-15T16:19:55.700Z,14.37
2022-10-15T16:22:57.388Z,14.22
2022-10-15T16:25:59.082Z,14.08
2022-10-15T16:29:00.684Z,14.19
2022-10-15T16:32:02.420Z,14.01
2022-10-15T16:35:04.339Z,13.69
2022-10-15T16:38:06.529Z,13.51
2022-10-15T16:41:09.140Z,13.41
2022-10-15T16:44:10.813Z,13.27
2022-10-15T16:47:12.667Z,13.18
2022-10-15T16:50:14.294Z,13.04
2022-10-15T16:53:15.963Z,12.99
2022-10-15T16:56:21.829Z,12.83
2022-10-15T16:59:25.027Z,12.74
2022-10-15T17:02:27.054Z,12.70
2022-10-15T17:05:31.655Z,12.69
2022-10-15T17:08:45.467Z,12.64
2022-10-15T17:11:47.404Z,12.55
2022-10-15T17:14:51.182Z,12.52
2022-10-15T17:17:53.030Z,12.53
2022-10-15T17:20:54.685Z,12.52
2022-10-15T17:23:59.095Z,12.55
2022-10-15T17:27:00.743Z,12.50
2022-10-15T17:30:02.509Z,12.44
2022-10-15T17:33:05.374Z,12.35
2022-10-15T17:36:10.059Z,12.26
2022-10-15T17:39:13.546Z,12.24
2022-10-15T17:42:16.150Z,12.13
2022-10-15T17:45:17.815Z,12.08
2022-10-15T17:48:19.744Z,12.10
2022-10-15T17:51:23.845Z,11.97
2022-10-15T17:54:25.601Z,11.93
2022-10-15T17:57:28.143Z,11.85
2022-10-15T18:00:30.356Z,11.78
2022-10-15T18:03:32.132Z,11.72
2022-10-15T18:06:34.192Z,11.71
2022-10-15T18:09:36.256Z,11.70
2022-10-15T18:12:37.913Z,11.72
2022-10-15T18:15:47.949Z,11.72
2022-10-15T18:18:50.285Z,11.76
2022-10-15T18:21:52.292Z,11.73
2022-10-15T18:24:56.234Z,11.71
2022-10-15T18:27:58.001Z,11.70
2022-10-15T18:31:03.124Z,11.75
2022-10-15T18:34:04.718Z,11.78
2022-10-15T18:37:06.455Z,11.78
2022-10-15T18:40:08.663Z,11.77
2022-10-15T18:43:10.346Z,11.73
2022-10-15T18:46:12.035Z,11.71
2022-10-15T18:49:16.112Z,11.69
2022-10-15T18:52:21.856Z,11.69
2022-10-15T18:55:30.004Z,11.73
2022-10-15T18:58:31.746Z,11.75
2022-10-15T19:01:35.981Z,11.73
2022-10-15T19:04:37.640Z,11.72
2022-10-15T19:07:39.266Z,11.67
2022-10-15T19:10:41.413Z,11.65
2022-10-15T19:13:43.142Z,11.67
2022-10-15T19:16:45.698Z,11.70
2022-10-15T19:19:50.671Z,11.70
2022-10-15T19:22:53.362Z,11.66
2022-10-15T19:25:55.217Z,11.58
2022-10-15T19:28:57.652Z,11.50
2022-10-15T19:31:59.406Z,11.45
2022-10-15T19:35:01.632Z,11.54
2022-10-15T19:38:03.368Z,11.54
2022-10-15T19:41:05.257Z,11.41
2022-10-15T19:44:08.325Z,11.30
2022-10-15T19:47:10.493Z,11.36
2022-10-15T19:50:12.122Z,11.33
2022-10-15T19:53:16.784Z,11.30
2022-10-15T19:56:18.429Z,11.26
2022-10-15T19:59:20.120Z,11.21
2022-10-15T20:02:21.833Z,11.29
2022-10-15T20:05:23.696Z,11.34
2022-10-15T20:08:25.767Z,11.42
2022-10-15T20:11:27.551Z,11.51
2022-10-15T20:14:29.287Z,11.42
2022-10-15T20:17:30.929Z,11.33
2022-10-15T20:20:35.999Z,11.31
2022-10-15T20:23:38.551Z,11.29
2022-10-15T20:26:40.396Z,11.22
2022-10-15T20:29:41.996Z,11.25
2022-10-15T20:32:47.366Z,11.30
2022-10-15T20:35:50.781Z,11.32
2022-10-15T20:38:52.511Z,11.35
2022-10-15T20:41:54.113Z,11.40
2022-10-15T20:44:55.808Z,11.42
2022-10-15T20:47:58.133Z,11.42
2022-10-15T20:51:00.485Z,11.45
2022-10-15T20:54:02.178Z,11.45
2022-10-15T20:57:04.645Z,11.37
2022-10-15T21:00:08.227Z,11.27
2022-10-15T21:03:10.447Z,11.18
2022-10-15T21:06:12.374Z,11.11
2022-10-15T21:09:14.072Z,11.05
2022-10-15T21:12:15.905Z,11.00
2022-10-15T21:15:17.613Z,10.95
2022-10-15T21:18:19.279Z,10.89
2022-10-15T21:21:21.245Z,10.85
2022-10-15T21:24:27.850Z,10.81
2022-10-15T21:27:29.554Z,10.79
2022-10-15T21:30:31.170Z,10.75
2022-10-15T21:33:33.336Z,10.73
2022-10-15T21:36:35.023Z,10.70
2022-10-15T21:39:36.669Z,10.68
2022-10-15T21:42:38.417Z,10.63
2022-10-15T21:45:40.208Z,10.62
2022-10-15T21:48:42.721Z,10.61
2022-10-15T21:51:44.456Z,10.58
2022-10-15T21:54:46.691Z,10.57
2022-10-15T21:57:48.391Z,10.56
2022-10-15T22:00:50.108Z,10.52
2022-10-15T22:03:53.535Z,10.45
2022-10-15T22:06:55.403Z,10.41
2022-10-15T22:09:57.085Z,10.37
2022-10-15T22:12:58.893Z,10.34
2022-10-15T22:16:00.687Z,10.32
2022-10-15T22:19:03.342Z,10.27
2022-10-15T22:22:05.428Z,10.24
2022-10-15T22:25:07.522Z,10.20
2022-10-15T22:28:09.262Z,10.16
2022-10-15T22:31:13.775Z,10.15
2022-10-15T22:34:15.826Z,10.15
2022-10-15T22:37:17.645Z,10.14
2022-10-15T22:40:19.465Z,10.12
2022-10-15T22:43:21.726Z,10.10
2022-10-15T22:46:23.850Z,10.08
2022-10-15T22:49:25.777Z,10.07
2022-10-15T22:52:27.591Z,10.07
2022-10-15T22:55:29.613Z,10.07
2022-10-15T22:58:32.371Z,10.06
2022-10-15T23:01:35.128Z,10.01
2022-10-15T23:04:36.906Z,9.96
2022-10-15T23:07:58.386Z,9.91
2022-10-15T23:11:18.490Z,9.80
2022-10-15T23:14:20.232Z,9.66
2022-10-15T23:20:28.500Z,9.46
2022-10-15T23:23:30.204Z,9.41
2022-10-15T23:26:32.075Z,9.39
2022-10-15T23:29:33.727Z,9.36
2022-10-15T23:32:35.390Z,9.34
2022-10-15T23:38:45.087Z,9.30
2022-10-15T23:41:47.303Z,9.28
2022-10-15T23:44:48.996Z,9.26
2022-10-15T23:47:50.646Z,9.26
2022-10-15T23:50:52.419Z,9.27
2022-10-15T23:53:55.872Z,9.30
2022-10-15T23:56:57.614Z,9.31
2022-10-15T23:59:59.495Z,9.34
